Time;durP1;ratioP1;P1;durP2;ratioP2;P2;SDS_P1;SDS_P2;PMS_P1;PMS_P2;Temp;Humidity;BMP_temperature;BMP_pressure;BME280_temperature;BME280_humidity;BME280_pressure;Samples;Min_cycle;Max_cycle;Signal;HPM_P1;HPM_P2
2021/05/14 00:00:58;;;;;;;2.77;2.50;;;14.50;99.90;;;;;;5064819;28;20530;-73
2021/05/14 00:03:25;;;;;;;4.70;2.87;;;14.50;99.90;;;;;;5065320;28;20206;-73
2021/05/14 00:05:52;;;;;;;7.70;2.50;;;14.40;99.90;;;;;;5067058;28;20240;-73
2021/05/14 00:08:19;;;;;;;2.70;2.50;;;14.40;99.90;;;;;;5069511;28;20196;-73
2021/05/14 00:10:46;;;;;;;4.23;2.80;;;14.40;99.90;;;;;;5061990;28;20278;-73
2021/05/14 00:13:13;;;;;;;3.43;2.50;;;14.40;99.90;;;;;;5068934;28;20199;-73
2021/05/14 00:15:39;;;;;;;5.00;2.20;;;14.30;99.90;;;;;;5065435;28;20234;-73
2021/05/14 00:18:07;;;;;;;2.70;1.90;;;14.30;99.90;;;;;;5070757;28;20213;-73
2021/05/14 00:20:33;;;;;;;2.47;2.27;;;14.30;99.90;;;;;;5066922;28;20688;-73
2021/05/14 00:23:00;;;;;;;2.57;2.37;;;14.30;99.90;;;;;;5068555;28;20336;-73
2021/05/14 00:25:26;;;;;;;14.07;4.80;;;14.30;99.90;;;;;;5074448;28;20746;-73
2021/05/14 00:27:53;;;;;;;9.50;3.27;;;14.20;99.90;;;;;;5068494;28;20193;-73
2021/05/14 00:30:21;;;;;;;9.63;3.10;;;14.20;99.90;;;;;;5067611;28;20652;-73
2021/05/14 00:32:48;;;;;;;13.80;4.23;;;14.20;99.90;;;;;;5070489;28;20202;-73
2021/05/14 00:35:15;;;;;;;3.37;2.30;;;14.20;99.90;;;;;;5071199;28;20202;-73
2021/05/14 00:37:42;;;;;;;2.50;2.30;;;14.20;99.90;;;;;;5069687;28;20285;-73
2021/05/14 00:40:09;;;;;;;2.33;2.10;;;14.20;99.90;;;;;;5068355;28;20521;-73
2021/05/14 00:42:36;;;;;;;3.20;2.53;;;14.20;99.90;;;;;;5069761;28;20209;-73
2021/05/14 00:45:03;;;;;;;2.07;1.97;;;14.20;99.90;;;;;;5067300;28;20222;-73
2021/05/14 00:47:30;;;;;;;2.97;2.10;;;14.20;99.90;;;;;;5070202;28;20218;-73
2021/05/14 00:49:57;;;;;;;2.20;2.00;;;14.20;99.90;;;;;;5070356;28;20205;-73
2021/05/14 00:52:24;;;;;;;2.00;1.90;;;14.20;99.90;;;;;;5069966;28;20658;-73
2021/05/14 00:54:52;;;;;;;2.97;2.20;;;14.20;99.90;;;;;;5068031;28;20234;-73
2021/05/14 00:57:19;;;;;;;3.00;2.17;;;14.10;99.90;;;;;;5070020;28;20297;-74
2021/05/14 00:59:47;;;;;;;5.80;2.40;;;14.20;99.90;;;;;;5071000;28;20275;-73
2021/05/14 01:02:15;;;;;;;2.77;2.10;;;14.10;99.90;;;;;;5064792;28;20610;-73
2021/05/14 01:04:43;;;;;;;8.40;2.50;;;14.10;99.90;;;;;;5070881;28;20223;-73
2021/05/14 01:07:11;;;;;;;3.37;2.30;;;14.10;99.90;;;;;;5068532;28;20203;-73
2021/05/14 01:09:41;;;;;;;4.17;2.57;;;14.10;99.90;;;;;;5062454;28;20603;-73
2021/05/14 01:12:08;;;;;;;3.07;1.80;;;14.10;99.90;;;;;;5068994;28;20194;-73
2021/05/14 01:14:35;;;;;;;6.90;2.50;;;14.10;99.90;;;;;;5070974;28;20202;-73
2021/05/14 01:17:02;;;;;;;7.83;2.50;;;14.10;99.90;;;;;;5068273;28;20620;-74
2021/05/14 01:19:28;;;;;;;6.60;2.50;;;14.00;99.90;;;;;;5067887;28;20194;-73
2021/05/14 01:21:56;;;;;;;6.90;2.13;;;14.00;99.90;;;;;;5064144;28;20205;-73
2021/05/14 01:24:23;;;;;;;2.77;2.20;;;14.00;99.90;;;;;;5062046;28;20246;-73
2021/05/14 01:26:49;;;;;;;3.17;2.10;;;14.00;99.90;;;;;;5073310;28;20201;-73
2021/05/14 01:29:16;;;;;;;2.90;2.13;;;13.90;99.90;;;;;;5057403;28;20289;-73
2021/05/14 01:31:43;;;;;;;2.17;1.80;;;13.90;99.90;;;;;;5067229;28;20190;-73
2021/05/14 01:34:09;;;;;;;6.43;2.10;;;13.90;99.90;;;;;;5070378;28;20201;-73
2021/05/14 01:36:37;;;;;;;2.27;1.97;;;13.90;99.90;;;;;;5070261;28;20363;-73
2021/05/14 01:39:10;;;;;;;2.10;1.90;;;13.80;99.90;;;;;;5069601;28;20258;-73
2021/05/14 01:41:37;;;;;;;2.83;1.73;;;13.80;99.90;;;;;;5100840;28;20205;-73
2021/05/14 01:44:05;;;;;;;2.00;1.90;;;13.80;99.90;;;;;;5068604;28;20230;-73
2021/05/14 01:46:31;;;;;;;1.90;1.80;;;13.80;99.90;;;;;;5069158;28;20740;-73
2021/05/14 01:48:58;;;;;;;1.70;1.60;;;13.80;99.90;;;;;;5070258;28;20209;-73
2021/05/14 01:51:25;;;;;;;5.07;1.50;;;13.70;99.90;;;;;;5063184;28;20643;-73
2021/05/14 01:53:52;;;;;;;1.40;1.17;;;13.70;99.90;;;;;;5070153;28;20681;-72
2021/05/14 01:56:20;;;;;;;2.60;1.20;;;13.70;99.90;;;;;;5068906;28;20209;-73
2021/05/14 01:58:46;;;;;;;1.17;1.07;;;13.60;99.90;;;;;;5080099;28;20200;-73
2021/05/14 02:01:13;;;;;;;1.17;1.13;;;13.50;99.90;;;;;;5063003;28;20486;-73
2021/05/14 02:03:40;;;;;;;1.03;1.00;;;13.50;99.90;;;;;;5070435;28;20665;-73
2021/05/14 02:06:07;;;;;;;2.53;0.80;;;13.50;99.90;;;;;;5070348;28;20219;-73
2021/05/14 02:08:34;;;;;;;0.83;0.83;;;13.50;99.90;;;;;;5070239;28;20626;-73
2021/05/14 02:11:03;;;;;;;0.77;0.77;;;13.50;99.90;;;;;;5068417;28;20232;-73
2021/05/14 02:13:30;;;;;;;1.03;0.90;;;13.50;99.90;;;;;;5070018;28;20250;-73
2021/05/14 02:15:57;;;;;;;1.10;1.00;;;13.50;99.90;;;;;;5068220;28;20279;-73
2021/05/14 02:18:23;;;;;;;2.87;0.93;;;13.50;99.90;;;;;;5068069;28;20486;-73
2021/05/14 02:20:50;;;;;;;0.93;0.93;;;13.50;99.90;;;;;;5065528;28;20206;-73
2021/05/14 02:23:17;;;;;;;2.47;1.17;;;13.40;99.90;;;;;;5067934;28;20209;-73
2021/05/14 02:25:43;;;;;;;2.47;1.30;;;13.40;99.90;;;;;;5066988;28;20765;-72
2021/05/14 02:28:10;;;;;;;2.93;1.30;;;13.40;99.90;;;;;;5067952;28;21180;-73
2021/05/14 02:30:37;;;;;;;1.53;1.00;;;13.40;99.90;;;;;;5065645;28;20630;-73
2021/05/14 02:33:05;;;;;;;0.90;0.87;;;13.40;99.90;;;;;;5068957;28;20209;-73
2021/05/14 02:35:31;;;;;;;1.13;1.00;;;13.30;99.90;;;;;;5068031;28;20299;-72
2021/05/14 02:37:58;;;;;;;1.13;0.90;;;13.30;99.90;;;;;;5070553;28;20290;-73
2021/05/14 02:40:24;;;;;;;1.13;1.03;;;13.30;99.90;;;;;;5068132;28;20267;-73
2021/05/14 02:42:51;;;;;;;1.30;1.07;;;13.30;99.90;;;;;;5068834;28;20292;-72
2021/05/14 02:45:17;;;;;;;0.93;0.90;;;13.30;99.90;;;;;;5067988;28;20702;-73
2021/05/14 02:47:45;;;;;;;0.73;0.73;;;13.40;99.90;;;;;;5070597;28;20440;-72
2021/05/14 02:50:13;;;;;;;2.37;0.70;;;13.40;99.90;;;;;;5066822;28;20520;-73
2021/05/14 02:52:40;;;;;;;1.67;0.90;;;13.40;99.90;;;;;;5068818;28;20602;-73
2021/05/14 02:55:08;;;;;;;0.77;0.77;;;13.40;99.90;;;;;;5068390;28;20193;-73
2021/05/14 02:57:35;;;;;;;1.33;1.00;;;13.30;99.90;;;;;;5069529;28;20201;-73
2021/05/14 03:00:03;;;;;;;1.00;0.80;;;13.40;99.90;;;;;;5067689;28;20210;-73
2021/05/14 03:02:29;;;;;;;1.70;0.90;;;13.40;99.90;;;;;;5062485;28;20213;-73
2021/05/14 03:04:57;;;;;;;1.40;0.80;;;13.40;99.90;;;;;;5069212;28;20294;-73
2021/05/14 03:07:23;;;;;;;3.07;0.87;;;13.40;99.90;;;;;;5067482;28;20197;-73
2021/05/14 03:09:50;;;;;;;2.87;1.50;;;13.40;99.90;;;;;;5067669;28;20193;-72
2021/05/14 03:12:16;;;;;;;1.17;1.00;;;13.40;99.90;;;;;;5069018;28;20292;-72
2021/05/14 03:14:43;;;;;;;0.80;0.80;;;13.40;99.90;;;;;;5068664;28;20262;-71
2021/05/14 03:17:09;;;;;;;1.17;0.80;;;13.40;99.90;;;;;;5068427;28;20564;-72
2021/05/14 03:19:36;;;;;;;0.70;0.70;;;13.30;99.90;;;;;;5071558;28;20580;-72
2021/05/14 03:22:04;;;;;;;1.47;0.70;;;13.30;99.90;;;;;;5068437;28;20603;-73
2021/05/14 03:24:30;;;;;;;1.63;1.00;;;13.30;99.90;;;;;;5069056;28;20227;-72
2021/05/14 03:26:57;;;;;;;1.13;0.60;;;13.30;99.90;;;;;;5071225;28;20486;-72
2021/05/14 03:29:23;;;;;;;0.60;0.60;;;13.30;99.90;;;;;;5068859;28;20193;-72
2021/05/14 03:31:50;;;;;;;0.60;0.60;;;13.30;99.90;;;;;;5055092;28;20194;-72
2021/05/14 03:34:16;;;;;;;0.70;0.70;;;13.40;99.90;;;;;;5068811;28;20276;-73
2021/05/14 03:36:43;;;;;;;0.60;0.60;;;13.30;99.90;;;;;;5067315;28;20429;-73
2021/05/14 03:39:11;;;;;;;2.13;0.67;;;13.40;99.90;;;;;;5067369;28;20193;-72
2021/05/14 03:41:48;;;;;;;4.27;0.60;;;13.40;99.90;;;;;;5068141;28;20258;-73
2021/05/14 03:44:14;;;;;;;0.50;0.50;;;13.40;99.90;;;;;;5067523;28;20259;-73
2021/05/14 03:46:41;;;;;;;1.70;0.60;;;13.40;99.90;;;;;;5068954;28;20661;-72
2021/05/14 03:49:07;;;;;;;0.97;0.83;;;13.40;99.90;;;;;;5066384;28;20197;-72
2021/05/14 03:51:38;;;;;;;0.93;0.40;;;13.40;99.90;;;;;;5068736;28;20196;-72
2021/05/14 03:54:05;;;;;;;0.73;0.73;;;13.40;99.90;;;;;;5067963;28;20189;-72
2021/05/14 03:56:34;;;;;;;3.77;0.77;;;13.40;99.90;;;;;;5065720;28;20278;-72
2021/05/14 03:59:00;;;;;;;4.27;0.83;;;13.40;99.90;;;;;;5062346;28;20193;-72
2021/05/14 04:01:28;;;;;;;0.97;0.87;;;13.40;99.90;;;;;;5057924;28;20192;-73
2021/05/14 04:03:55;;;;;;;3.13;1.10;;;13.40;99.90;;;;;;5066861;28;20284;-72
2021/05/14 04:06:21;;;;;;;1.80;0.97;;;13.40;99.90;;;;;;5067781;28;20220;-73
2021/05/14 04:08:48;;;;;;;1.37;0.77;;;13.40;99.90;;;;;;5070820;28;20201;-72
2021/05/14 04:16:44;;;;;;;1.20;1.10;;;13.50;99.90;;;;;;5006969;28;20222;-72
2021/05/14 04:19:11;;;;;;;2.37;1.03;;;13.50;99.90;;;;;;5011279;28;20729;-73
2021/05/14 04:21:37;;;;;;;0.70;0.70;;;13.50;99.90;;;;;;4993584;28;20248;-72
2021/05/14 04:24:05;;;;;;;1.10;1.10;;;13.50;99.90;;;;;;5002159;28;20204;-73
2021/05/14 04:26:32;;;;;;;1.23;1.13;;;13.50;99.90;;;;;;5006634;28;20302;-72
2021/05/14 04:28:59;;;;;;;1.20;1.10;;;13.60;99.90;;;;;;5000411;28;20210;-72
2021/05/14 04:31:26;;;;;;;2.70;1.20;;;13.60;99.90;;;;;;4983811;28;20294;-72
2021/05/14 04:33:53;;;;;;;2.87;1.20;;;13.10;99.90;;;;;;4990399;28;20294;-72
2021/05/14 04:36:20;;;;;;;1.53;1.20;;;13.60;99.90;;;;;;5004052;28;20201;-72
2021/05/14 04:38:46;;;;;;;4.97;1.40;;;13.70;99.90;;;;;;4998797;28;20326;-73
2021/05/14 04:41:13;;;;;;;3.13;1.00;;;13.70;99.90;;;;;;5006575;28;20293;-72
2021/05/14 04:43:39;;;;;;;5.10;1.30;;;13.70;99.90;;;;;;4990360;28;20297;-72
2021/05/14 04:46:06;;;;;;;5.47;1.37;;;13.70;99.90;;;;;;5005169;28;20286;-73
2021/05/14 04:48:33;;;;;;;4.77;1.10;;;13.70;99.90;;;;;;5010124;28;20199;-73
2021/05/14 04:51:00;;;;;;;0.93;0.93;;;13.80;99.90;;;;;;5037143;28;20221;-72
2021/05/14 04:53:29;;;;;;;4.73;1.30;;;13.80;99.90;;;;;;5070004;28;20197;-73
2021/05/14 04:55:56;;;;;;;2.60;1.00;;;13.90;99.90;;;;;;5065702;28;20686;-73
2021/05/14 04:58:23;;;;;;;3.20;1.00;;;13.90;99.90;;;;;;5070644;28;20201;-73
2021/05/14 05:00:49;;;;;;;6.63;1.30;;;13.90;99.90;;;;;;5067087;28;20224;-73
2021/05/14 05:03:17;;;;;;;6.47;1.10;;;14.00;99.90;;;;;;5068455;28;20205;-73
2021/05/14 05:05:43;;;;;;;3.23;1.30;;;14.00;99.90;;;;;;5069387;28;20209;-73
2021/05/14 05:08:10;;;;;;;3.83;1.90;;;14.00;99.90;;;;;;5066374;28;20210;-73
2021/05/14 05:10:36;;;;;;;1.37;1.03;;;14.10;99.90;;;;;;5070170;28;20245;-73
2021/05/14 05:13:03;;;;;;;6.50;1.30;;;14.20;99.90;;;;;;5067490;28;20244;-72
2021/05/14 05:15:29;;;;;;;1.30;1.10;;;14.30;99.90;;;;;;5040805;28;20280;-72
2021/05/14 05:17:56;;;;;;;7.90;1.10;;;14.30;99.90;;;;;;5072745;28;20597;-73
2021/05/14 05:20:23;;;;;;;2.43;0.97;;;14.40;99.90;;;;;;5058598;28;20213;-73
2021/05/14 05:22:50;;;;;;;4.30;0.90;;;14.40;99.90;;;;;;5064381;28;20233;-72
2021/05/14 05:25:17;;;;;;;2.57;1.03;;;14.40;99.90;;;;;;5074672;28;20256;-73
2021/05/14 05:27:44;;;;;;;1.27;1.00;;;14.50;99.90;;;;;;5069893;28;20213;-73
2021/05/14 05:30:11;;;;;;;1.80;1.07;;;14.70;99.90;;;;;;5069060;28;20194;-73
2021/05/14 05:32:38;;;;;;;2.33;0.90;;;14.70;99.90;;;;;;5063364;28;20237;-73
2021/05/14 05:35:05;;;;;;;1.53;1.00;;;14.90;99.90;;;;;;5070444;28;20673;-73
2021/05/14 05:37:33;;;;;;;0.57;0.57;;;15.10;99.90;;;;;;5072365;28;20198;-73
2021/05/14 05:39:59;;;;;;;7.70;0.97;;;15.40;99.90;;;;;;5061605;28;20228;-73
2021/05/14 05:42:26;;;;;;;3.07;0.90;;;16.10;99.90;;;;;;5070254;28;20205;-73
2021/05/14 05:44:52;;;;;;;0.90;0.90;;;16.90;99.90;;;;;;5063731;28;20318;-72
2021/05/14 05:47:19;;;;;;;1.00;0.87;;;17.30;99.90;;;;;;5070426;28;20190;-72
2021/05/14 05:49:45;;;;;;;2.00;1.00;;;17.20;99.90;;;;;;5066496;28;20622;-73
2021/05/14 05:52:12;;;;;;;0.90;0.90;;;17.70;99.90;;;;;;5069895;28;20197;-73
2021/05/14 05:54:39;;;;;;;0.77;0.70;;;19.30;99.90;;;;;;5066510;28;20201;-73
2021/05/14 05:57:06;;;;;;;0.70;0.70;;;20.80;99.90;;;;;;5070474;28;20217;-73
2021/05/14 05:59:35;;;;;;;0.80;0.80;;;22.50;96.30;;;;;;5064707;28;20245;-73
2021/05/14 06:02:01;;;;;;;3.70;1.65;;;23.80;91.80;;;;;;5063693;28;20211;-73
2021/05/14 06:04:28;;;;;;;3.92;1.15;;;24.90;83.60;;;;;;5065639;28;20292;-73
2021/05/14 06:06:54;;;;;;;2.70;1.02;;;25.80;76.20;;;;;;5069019;28;20237;-73
2021/05/14 06:09:21;;;;;;;2.10;1.20;;;26.80;70.40;;;;;;5066868;28;20604;-73
2021/05/14 06:11:48;;;;;;;3.47;1.00;;;27.70;66.00;;;;;;5067932;28;20637;-73
2021/05/14 06:14:15;;;;;;;1.45;1.00;;;28.80;61.00;;;;;;5065749;28;20278;-73
2021/05/14 06:16:41;;;;;;;4.15;1.00;;;29.80;56.50;;;;;;5068784;28;20303;-72
2021/05/14 06:19:12;;;;;;;3.30;1.15;;;30.10;53.10;;;;;;5069242;28;20212;-72
2021/05/14 06:21:44;;;;;;;8.63;1.38;;;29.70;51.50;;;;;;5061401;28;20220;-72
2021/05/14 06:24:13;;;;;;;1.17;0.98;;;28.80;51.40;;;;;;5058512;28;20930;-72
2021/05/14 06:26:39;;;;;;;1.42;0.88;;;27.60;51.40;;;;;;5078682;28;20224;-72
2021/05/14 06:29:07;;;;;;;0.98;0.98;;;25.90;53.50;;;;;;5062370;28;20201;-72
2021/05/14 06:31:33;;;;;;;1.65;1.08;;;24.50;55.90;;;;;;5061781;28;20290;-73
2021/05/14 06:34:00;;;;;;;0.90;0.90;;;23.70;58.10;;;;;;5062073;28;20592;-72
2021/05/14 06:36:28;;;;;;;13.60;1.52;;;23.40;58.70;;;;;;5062624;28;20672;-73
2021/05/14 06:38:55;;;;;;;2.35;0.90;;;22.80;59.70;;;;;;5060851;28;20202;-73
2021/05/14 06:41:21;;;;;;;2.25;1.08;;;22.20;60.90;;;;;;5060529;28;20205;-71
2021/05/14 06:43:48;;;;;;;1.90;0.73;;;21.90;62.90;;;;;;5061765;28;20201;-69
2021/05/14 06:46:16;;;;;;;3.35;1.10;;;23.90;63.40;;;;;;5063220;28;20228;-71
2021/05/14 06:48:44;;;;;;;0.80;0.80;;;25.50;59.00;;;;;;5063271;28;20314;-71
2021/05/14 06:51:11;;;;;;;3.05;0.80;;;26.10;57.30;;;;;;5064059;28;20200;-71
2021/05/14 06:53:37;;;;;;;1.00;1.00;;;27.60;56.00;;;;;;5062608;28;20205;-71
2021/05/14 06:56:04;;;;;;;1.20;0.95;;;28.20;52.20;;;;;;5059397;28;20226;-71
2021/05/14 06:58:31;;;;;;;1.67;1.38;;;27.70;52.50;;;;;;5062715;28;20251;-71
2021/05/14 07:00:57;;;;;;;2.17;0.90;;;27.70;52.60;;;;;;5061425;28;20201;-72
2021/05/14 07:03:25;;;;;;;1.20;1.10;;;27.60;53.10;;;;;;5059987;28;20205;-71
2021/05/14 07:05:52;;;;;;;1.20;1.10;;;28.10;52.10;;;;;;5059978;28;20217;-71
2021/05/14 07:08:19;;;;;;;2.63;1.30;;;28.30;50.80;;;;;;5060756;28;20489;-69
2021/05/14 07:10:45;;;;;;;1.13;1.05;;;27.80;50.40;;;;;;5055357;28;20212;-70
2021/05/14 07:13:12;;;;;;;0.73;0.73;;;27.50;50.90;;;;;;5062163;28;20208;-72
2021/05/14 07:15:38;;;;;;;2.08;0.82;;;27.90;50.50;;;;;;5062335;28;20224;-72
2021/05/14 07:18:05;;;;;;;0.80;0.80;;;28.10;50.50;;;;;;5063490;28;20217;-71
2021/05/14 07:20:33;;;;;;;0.80;0.80;;;28.80;49.40;;;;;;5056531;28;20284;-71
2021/05/14 07:22:59;;;;;;;1.38;0.73;;;29.00;48.40;;;;;;5064943;28;20204;-71
2021/05/14 07:25:26;;;;;;;0.90;0.90;;;28.90;48.50;;;;;;5060719;28;20282;-71
2021/05/14 07:27:53;;;;;;;1.00;0.90;;;28.40;48.50;;;;;;5058522;28;20232;-72
2021/05/14 07:30:20;;;;;;;4.68;1.10;;;27.70;49.20;;;;;;5060454;28;20549;-72
2021/05/14 07:32:47;;;;;;;2.95;1.10;;;27.00;49.70;;;;;;5062155;28;20204;-71
2021/05/14 07:35:13;;;;;;;4.15;1.20;;;26.40;50.50;;;;;;5059039;28;20194;-71
2021/05/14 07:37:41;;;;;;;1.00;0.95;;;25.90;50.70;;;;;;5061673;28;20568;-70
2021/05/14 07:40:09;;;;;;;1.27;1.10;;;25.40;51.40;;;;;;5065118;28;20500;-71
2021/05/14 07:42:35;;;;;;;1.65;1.08;;;25.10;51.90;;;;;;5067442;28;20217;-71
2021/05/14 07:45:02;;;;;;;3.72;1.20;;;24.80;52.60;;;;;;5066537;28;20229;-70
2021/05/14 07:47:29;;;;;;;1.80;1.15;;;24.50;53.20;;;;;;5067466;28;20197;-70
2021/05/14 07:49:55;;;;;;;2.28;1.38;;;24.30;54.00;;;;;;5065202;28;20230;-71
2021/05/14 07:52:22;;;;;;;4.70;1.23;;;24.10;54.00;;;;;;5064948;28;20193;-71
2021/05/14 07:54:49;;;;;;;2.15;1.20;;;24.00;54.50;;;;;;5065551;28;20618;-70
2021/05/14 07:57:16;;;;;;;4.68;1.10;;;23.80;54.40;;;;;;5066341;28;20228;-71
2021/05/14 07:59:42;;;;;;;6.78;1.48;;;23.40;54.30;;;;;;5059430;28;20202;-70
2021/05/14 08:02:09;;;;;;;2.47;1.48;;;23.00;54.90;;;;;;5062198;28;20251;-70
2021/05/14 08:04:35;;;;;;;1.55;1.02;;;22.60;55.40;;;;;;5061880;28;20496;-70
2021/05/14 08:07:02;;;;;;;5.45;1.25;;;22.20;56.30;;;;;;5062127;28;20205;-70
2021/05/14 08:09:28;;;;;;;5.38;1.15;;;22.00;56.60;;;;;;5065147;28;20195;-70
2021/05/14 08:11:56;;;;;;;2.22;0.93;;;21.90;56.90;;;;;;5065419;28;20231;-70
2021/05/14 08:14:23;;;;;;;1.25;0.93;;;21.90;57.20;;;;;;5065915;28;20288;-69
2021/05/14 08:16:50;;;;;;;2.95;1.02;;;22.00;57.70;;;;;;5059264;28;20779;-69
2021/05/14 08:19:16;;;;;;;2.97;0.80;;;22.00;57.00;;;;;;5063847;28;20204;-70
2021/05/14 08:21:44;;;;;;;3.28;1.27;;;22.00;56.80;;;;;;5061721;28;20825;-69
2021/05/14 08:24:11;;;;;;;0.80;0.80;;;21.90;56.40;;;;;;5064729;28;20580;-72
2021/05/14 08:26:39;;;;;;;0.88;0.70;;;22.00;56.80;;;;;;5061038;28;20779;-71
2021/05/14 08:29:06;;;;;;;2.13;0.75;;;22.40;57.40;;;;;;5067247;28;20243;-72
2021/05/14 08:31:34;;;;;;;0.60;0.60;;;22.90;57.10;;;;;;5065821;28;20296;-72
2021/05/14 08:34:00;;;;;;;2.83;0.50;;;23.40;56.40;;;;;;5066267;28;20200;-72
2021/05/14 08:36:27;;;;;;;0.70;0.70;;;23.70;55.70;;;;;;5062029;28;20280;-72
2021/05/14 08:38:54;;;;;;;0.70;0.70;;;24.10;54.80;;;;;;5067079;28;20525;-72
2021/05/14 08:41:24;;;;;;;1.85;0.70;;;24.00;54.30;;;;;;5066977;28;20493;-72
2021/05/14 08:43:51;;;;;;;1.80;1.13;;;24.00;54.20;;;;;;5060801;28;20197;-72
2021/05/14 08:46:26;;;;;;;0.80;0.80;;;24.10;53.80;;;;;;5064500;28;20493;-72
2021/05/14 08:48:56;;;;;;;0.90;0.90;;;24.20;54.50;;;;;;5061467;28;20533;-72
2021/05/14 08:51:26;;;;;;;4.82;1.17;;;24.50;54.10;;;;;;5064133;28;20568;-71
2021/05/14 08:53:53;;;;;;;3.78;1.40;;;24.60;54.00;;;;;;5061043;28;20672;-70
2021/05/14 08:56:19;;;;;;;2.03;1.20;;;24.90;53.70;;;;;;5063830;28;20224;-70
2021/05/14 08:58:46;;;;;;;0.90;0.90;;;25.20;53.30;;;;;;5058230;28;20197;-69
2021/05/14 09:01:13;;;;;;;1.95;0.98;;;25.80;53.20;;;;;;5058191;28;20202;-70
2021/05/14 09:03:57;;;;;;;3.63;1.27;;;26.90;51.90;;;;;;5068487;28;20201;-70
2021/05/14 09:06:31;;;;;;;2.92;1.05;;;28.00;50.30;;;;;;5060829;28;20533;-69
2021/05/14 09:08:58;;;;;;;1.60;1.17;;;29.60;48.80;;;;;;5060011;28;20292;-70
2021/05/14 09:11:40;;;;;;;2.15;1.23;;;31.40;46.20;;;;;;5066070;28;20222;-70
2021/05/14 09:14:27;;;;;;;1.13;1.00;;;33.30;44.00;;;;;;5062221;28;20220;-70
2021/05/14 09:16:55;;;;;;;1.30;1.20;;;35.00;41.30;;;;;;5095521;28;20231;-70
2021/05/14 09:19:30;;;;;;;0.95;0.95;;;36.30;36.90;;;;;;5062815;28;20276;-70
2021/05/14 09:22:07;;;;;;;0.90;0.90;;;36.80;35.40;;;;;;5065611;28;20196;-69
2021/05/14 09:24:34;;;;;;;1.30;1.20;;;37.60;34.90;;;;;;5062365;28;20408;-70
2021/05/14 09:27:00;;;;;;;1.65;1.55;;;38.50;33.70;;;;;;5072318;28;20201;-70
2021/05/14 09:29:38;;;;;;;1.85;1.52;;;39.20;32.50;;;;;;5063931;28;20283;-70
2021/05/14 09:32:26;;;;;;;5.32;1.30;;;40.00;31.30;;;;;;5064562;28;20197;-70
2021/05/14 09:34:53;;;;;;;1.42;1.33;;;40.80;30.20;;;;;;5064207;28;20279;-69
2021/05/14 09:37:23;;;;;;;1.67;1.38;;;41.10;28.90;;;;;;5062120;28;20203;-69
2021/05/14 09:39:50;;;;;;;2.20;1.98;;;41.50;28.30;;;;;;5063675;28;20222;-70
2021/05/14 09:42:31;;;;;;;1.55;1.45;;;42.00;27.20;;;;;;5057487;28;20218;-69
2021/05/14 09:45:13;;;;;;;1.98;1.40;;;42.10;27.50;;;;;;5059877;28;20224;-69
2021/05/14 09:47:41;;;;;;;1.35;1.33;;;42.20;27.00;;;;;;5055050;28;20203;-71
2021/05/14 09:50:30;;;;;;;2.13;1.52;;;42.30;27.00;;;;;;5062476;28;20560;-71
2021/05/14 09:53:15;;;;;;;1.20;1.20;;;41.50;26.90;;;;;;5061545;28;21007;-69
2021/05/14 09:55:47;;;;;;;1.50;1.40;;;40.10;27.50;;;;;;5060151;28;20228;-69
2021/05/14 09:58:18;;;;;;;3.25;1.60;;;39.90;27.20;;;;;;5058980;28;20296;-69
2021/05/14 10:00:44;;;;;;;1.67;1.60;;;39.70;27.30;;;;;;5060187;28;20379;-69
2021/05/14 10:03:15;;;;;;;1.63;1.52;;;40.30;27.00;;;;;;5061816;28;20445;-69
2021/05/14 10:05:44;;;;;;;4.18;1.40;;;40.90;26.80;;;;;;5057251;28;20550;-69
2021/05/14 10:08:12;;;;;;;3.70;1.58;;;42.00;26.40;;;;;;5062314;28;20440;-69
2021/05/14 10:10:40;;;;;;;5.00;1.73;;;42.60;25.30;;;;;;5062677;28;20200;-69
2021/05/14 10:13:07;;;;;;;1.85;1.40;;;42.90;25.10;;;;;;5066262;28;20189;-69
2021/05/14 10:15:34;;;;;;;3.25;1.58;;;43.10;25.10;;;;;;5059983;28;20210;-68
2021/05/14 10:18:03;;;;;;;2.35;1.60;;;43.30;25.10;;;;;;5059345;28;20200;-70
2021/05/14 10:20:31;;;;;;;1.70;1.60;;;43.70;24.80;;;;;;5062437;28;20189;-69
2021/05/14 10:23:00;;;;;;;2.10;1.95;;;43.80;24.40;;;;;;5063916;28;20201;-69
2021/05/14 10:25:44;;;;;;;3.45;1.70;;;43.80;24.30;;;;;;5057600;28;20739;-69
2021/05/14 10:28:12;;;;;;;1.70;1.60;;;44.10;24.50;;;;;;5060474;28;20794;-69
2021/05/14 10:31:15;;;;;;;4.38;1.80;;;44.60;23.90;;;;;;5056655;28;20204;-68
2021/05/14 10:33:43;;;;;;;1.77;1.67;;;44.40;23.60;;;;;;5055520;28;20188;-69
2021/05/14 10:36:12;;;;;;;2.63;1.48;;;44.40;23.70;;;;;;5060440;28;20193;-71
2021/05/14 10:38:39;;;;;;;3.15;1.50;;;44.40;23.60;;;;;;5058124;28;20468;-71
2021/05/14 10:41:24;;;;;;;8.05;1.92;;;44.20;23.20;;;;;;5063608;28;20272;-71
2021/05/14 10:44:03;;;;;;;1.60;1.50;;;44.20;23.20;;;;;;5064913;28;20203;-71
2021/05/14 10:46:30;;;;;;;1.98;1.88;;;43.60;23.30;;;;;;5062333;28;20224;-71
2021/05/14 10:49:02;;;;;;;4.15;1.73;;;43.40;23.40;;;;;;5062409;28;20254;-71
2021/05/14 10:52:02;;;;;;;4.35;1.90;;;43.10;23.50;;;;;;5061456;28;21194;-72
2021/05/14 10:54:53;;;;;;;7.20;2.00;;;43.10;23.50;;;;;;5058639;28;20624;-70
2021/05/14 10:57:50;;;;;;;2.88;2.08;;;43.30;23.30;;;;;;5056986;28;20196;-71
2021/05/14 11:00:31;;;;;;;3.20;1.63;;;42.80;23.30;;;;;;5050982;28;20240;-71
2021/05/14 11:03:18;;;;;;;4.03;1.70;;;41.90;23.50;;;;;;5062437;28;20203;-71
2021/05/14 11:05:47;;;;;;;2.28;1.40;;;40.00;24.20;;;;;;5059065;28;20252;-71
2021/05/14 11:08:40;;;;;;;1.60;1.50;;;39.10;24.90;;;;;;5078779;28;20292;-71
2021/05/14 11:11:10;;;;;;;2.90;1.60;;;38.70;25.30;;;;;;5057056;28;20659;-71
2021/05/14 11:13:44;;;;;;;3.83;1.77;;;38.80;25.50;;;;;;5063112;28;20596;-70
2021/05/14 11:16:39;;;;;;;1.58;1.48;;;38.70;25.50;;;;;;5062557;28;20615;-71
2021/05/14 11:19:11;;;;;;;4.90;1.67;;;38.20;25.90;;;;;;5063262;28;20200;-71
2021/05/14 11:22:01;;;;;;;1.80;1.50;;;37.70;26.10;;;;;;5064474;28;20211;-71
2021/05/14 11:24:31;;;;;;;4.00;1.40;;;36.90;26.60;;;;;;5061560;28;20189;-71
2021/05/14 11:27:02;;;;;;;1.38;1.38;;;36.50;27.20;;;;;;5063908;28;20316;-71
2021/05/14 11:29:30;;;;;;;1.50;1.50;;;35.90;27.50;;;;;;5064295;28;20674;-72
2021/05/14 11:32:17;;;;;;;12.70;3.95;;;34.80;28.10;;;;;;5060071;28;20280;-71
2021/05/14 11:34:52;;;;;;;3.17;1.77;;;33.80;29.10;;;;;;5059991;28;20301;-71
2021/05/14 11:37:20;;;;;;;1.50;1.40;;;32.80;29.90;;;;;;5090974;28;20449;-71
2021/05/14 11:39:47;;;;;;;1.33;1.30;;;32.00;30.50;;;;;;5061554;28;20218;-72
2021/05/14 11:42:19;;;;;;;1.75;1.10;;;31.10;31.40;;;;;;5064292;28;20529;-71
2021/05/14 11:44:56;;;;;;;17.08;2.00;;;30.30;32.50;;;;;;5062320;28;20241;-71
2021/05/14 11:47:23;;;;;;;1.30;1.23;;;29.70;33.20;;;;;;5061415;28;20535;-71
2021/05/14 11:49:50;;;;;;;2.80;1.42;;;29.80;33.50;;;;;;5062399;28;20276;-71
2021/05/14 11:52:32;;;;;;;1.30;1.20;;;30.00;33.40;;;;;;5060911;28;20243;-71
2021/05/14 11:55:06;;;;;;;2.90;1.40;;;30.20;33.30;;;;;;5058566;28;20443;-70
2021/05/14 11:57:33;;;;;;;1.25;1.25;;;30.50;33.50;;;;;;5057596;28;20537;-71
2021/05/14 12:00:00;;;;;;;1.40;1.30;;;30.70;33.30;;;;;;5062368;28;20224;-71
2021/05/14 12:02:34;;;;;;;1.40;1.30;;;30.60;33.40;;;;;;5060593;28;20223;-71
2021/05/14 12:05:00;;;;;;;1.20;1.20;;;30.50;33.50;;;;;;5060595;28;20952;-70
2021/05/14 12:07:27;;;;;;;1.75;1.50;;;30.30;33.60;;;;;;5057976;28;20198;-71
2021/05/14 12:09:58;;;;;;;1.33;1.23;;;30.00;33.90;;;;;;5060172;28;20197;-70
2021/05/14 12:12:26;;;;;;;2.70;1.20;;;29.80;34.20;;;;;;5062345;28;20725;-70
2021/05/14 12:15:23;;;;;;;2.10;1.58;;;29.50;34.00;;;;;;5061851;28;20189;-71
2021/05/14 12:17:57;;;;;;;4.40;1.33;;;29.20;34.40;;;;;;5093526;28;20559;-71
2021/05/14 12:20:33;;;;;;;1.20;1.10;;;28.60;35.10;;;;;;5060888;28;20235;-71
2021/05/14 12:23:01;;;;;;;3.55;1.65;;;28.10;35.70;;;;;;5072387;28;20223;-71
2021/05/14 12:25:29;;;;;;;1.50;1.40;;;27.70;36.50;;;;;;5061697;28;20269;-71
2021/05/14 12:27:57;;;;;;;1.55;1.45;;;27.20;37.30;;;;;;5065830;28;20726;-72
2021/05/14 12:30:40;;;;;;;1.60;1.50;;;26.70;38.00;;;;;;5064926;28;20236;-71
2021/05/14 12:33:08;;;;;;;4.30;1.27;;;26.20;38.60;;;;;;5062947;28;20209;-71
2021/05/14 12:35:34;;;;;;;3.75;1.27;;;25.70;39.70;;;;;;5055763;28;20198;-71
2021/05/14 12:38:02;;;;;;;1.58;1.20;;;25.40;39.60;;;;;;5097036;27;20197;-71
2021/05/14 12:40:34;;;;;;;3.08;1.30;;;25.00;39.80;;;;;;5063585;28;20250;-71
2021/05/14 12:43:09;;;;;;;29.15;6.20;;;24.70;40.30;;;;;;5066106;28;20284;-71
2021/05/14 12:45:37;;;;;;;20.08;3.58;;;24.30;40.60;;;;;;5057585;28;20239;-71
2021/05/14 12:48:10;;;;;;;3.05;1.20;;;24.00;41.00;;;;;;5063529;28;20201;-71
2021/05/14 12:50:40;;;;;;;0.80;0.80;;;23.80;41.50;;;;;;5064387;28;20425;-68
2021/05/14 12:53:20;;;;;;;5.03;1.27;;;23.60;42.40;;;;;;5061750;28;20300;-72
2021/05/14 12:55:47;;;;;;;2.25;1.00;;;23.40;42.70;;;;;;5059258;28;20644;-72
2021/05/14 12:58:14;;;;;;;2.35;1.55;;;23.20;42.80;;;;;;5066332;28;20197;-71
2021/05/14 13:00:41;;;;;;;3.70;1.38;;;22.80;43.20;;;;;;5057373;28;20326;-71